Search for airport 
image banner adimage banner adimage banner ad
image banner ad

2Y0 - Primghar

Located in Primghar, United States

ICAO - 2Y0, IATA -

Data provided by Airmate  

General information

Coordinates: N43°4'42" W95°36'52"
Elevation is 1481 feet MSL.
Magnetic variation is 05° East
View others Airports in Iowa

Operational data

Special qualification required
Current time UTC:
Current local time:
Weather at : KSHL - Sheldon Rgnl ( 23 km )
METAR: KSHL 150855Z AUTO 00000KT 10SM CLR 14/09 A3012 RMK AO2
View NOTAMs / SUP AIP / TFR affecting this airport [VIEW]
Communications frequencies: [VIEW]

Runways:

RWY identifierQFULength (ft)Width (ft)SurfaceLDA (ft)
17180°1985105OTHER
35360°1985105OTHER

Airport contact information

Address: Primghar United States

Satellite view of 2Y0